SUL6818 SBBR-SBCY
Flight info
| Callsign | SUL6818 |
|---|---|
| Flight time | 1h 21m |
| Altitude | 36000 |
| Route | SIREM DCT LODOV DCT MABMA DCT BOKIM |
| Aircraft | B738/M-SDFGIKLORWX/LB1 |
Departure
| Time | 2026-04-18 05:03 |
|---|---|
| Airport | Presidente Juscelino Kubitschek International Airport (SBBR) |
Arrival
| Time | 2026-04-18 06:24 |
|---|---|
| Airport | Várzea Grande–Marechal Rondon International Airport (SBCY) |
| Time | Latitude | Longitude | Altitude | Speed | Heading |
|---|---|---|---|---|---|
| 2026-04-18 04:34 | -15.86857 | -47.92691 | 3467 ft | 0 kts | 176° |
| 2026-04-18 04:55 | -15.86842 | -47.92692 | 3467 ft | 4 kts | 176° |
| 2026-04-18 04:56 | -15.86805 | -47.92712 | 3467 ft | 4 kts | 93° |
| 2026-04-18 04:56 | -15.86805 | -47.92731 | 3466 ft | 1 kts | 86° |
| 2026-04-18 04:56 | -15.86805 | -47.92733 | 3466 ft | 0 kts | 86° |
| 2026-04-18 04:58 | -15.86805 | -47.92732 | 3466 ft | 1 kts | 86° |
| 2026-04-18 04:59 | -15.86803 | -47.92708 | 3465 ft | 6 kts | 86° |
| 2026-04-18 04:59 | -15.86800 | -47.92660 | 3467 ft | 7 kts | 86° |
| 2026-04-18 04:59 | -15.86797 | -47.92604 | 3467 ft | 8 kts | 86° |
| 2026-04-18 04:59 | -15.86789 | -47.92542 | 3468 ft | 9 kts | 68° |
| 2026-04-18 05:00 | -15.86739 | -47.92501 | 3470 ft | 10 kts | 28° |
| 2026-04-18 05:00 | -15.86677 | -47.92465 | 3471 ft | 10 kts | 30° |
| 2026-04-18 05:00 | -15.86617 | -47.92431 | 3470 ft | 10 kts | 27° |
| 2026-04-18 05:00 | -15.86590 | -47.92416 | 3470 ft | 0 kts | 27° |
| 2026-04-18 05:01 | -15.86584 | -47.92413 | 3469 ft | 2 kts | 27° |
| 2026-04-18 05:01 | -15.86553 | -47.92396 | 3468 ft | 8 kts | 27° |
| 2026-04-18 05:01 | -15.86502 | -47.92349 | 3467 ft | 12 kts | 56° |
| 2026-04-18 05:01 | -15.86458 | -47.92278 | 3467 ft | 12 kts | 56° |
| 2026-04-18 05:02 | -15.86408 | -47.92201 | 3466 ft | 15 kts | 56° |
| 2026-04-18 05:02 | -15.86336 | -47.92091 | 3465 ft | 22 kts | 58° |
| 2026-04-18 05:02 | -15.86300 | -47.91856 | 3463 ft | 60 kts | 85° |
| 2026-04-18 05:02 | -15.86255 | -47.91170 | 3469 ft | 127 kts | 86° |
| 2026-04-18 05:03 | -15.86179 | -47.90061 | 3543 ft | 175 kts | 85° |
| 2026-04-18 05:03 | -15.86088 | -47.88775 | 4263 ft | 180 kts | 86° |
| 2026-04-18 05:03 | -15.86006 | -47.87486 | 5111 ft | 179 kts | 87° |
| 2026-04-18 05:03 | -15.85937 | -47.86151 | 5556 ft | 196 kts | 88° |
| 2026-04-18 05:04 | -15.85852 | -47.84647 | 5693 ft | 219 kts | 86° |
| 2026-04-18 05:04 | -15.85741 | -47.83005 | 5863 ft | 238 kts | 87° |
| 2026-04-18 05:04 | -15.85639 | -47.81215 | 5910 ft | 259 kts | 87° |
| 2026-04-18 05:04 | -15.85217 | -47.79333 | 6249 ft | 276 kts | 64° |
| 2026-04-18 05:05 | -15.84129 | -47.77698 | 6847 ft | 282 kts | 46° |
| 2026-04-18 05:05 | -15.82565 | -47.76470 | 7521 ft | 285 kts | 29° |
| 2026-04-18 05:05 | -15.80832 | -47.75448 | 8207 ft | 288 kts | 24° |
| 2026-04-18 05:05 | -15.78871 | -47.75096 | 8866 ft | 291 kts | 351° |
| 2026-04-18 05:06 | -15.77007 | -47.75886 | 9630 ft | 291 kts | 326° |
| 2026-04-18 05:06 | -15.75298 | -47.77034 | 10301 ft | 297 kts | 328° |
| 2026-04-18 05:06 | -15.73421 | -47.78116 | 10489 ft | 320 kts | 332° |
| 2026-04-18 05:06 | -15.71354 | -47.79184 | 10649 ft | 342 kts | 333° |
| 2026-04-18 05:07 | -15.69337 | -47.80581 | 10881 ft | 357 kts | 314° |
| 2026-04-18 05:07 | -15.67986 | -47.82767 | 11340 ft | 365 kts | 290° |
| 2026-04-18 05:07 | -15.67537 | -47.85316 | 11941 ft | 366 kts | 271° |
| 2026-04-18 05:07 | -15.67519 | -47.87964 | 12611 ft | 368 kts | 269° |
| 2026-04-18 05:08 | -15.67545 | -47.90632 | 13228 ft | 371 kts | 269° |
| 2026-04-18 05:08 | -15.67574 | -47.93316 | 13835 ft | 374 kts | 269° |
| 2026-04-18 05:08 | -15.67594 | -47.96026 | 14388 ft | 377 kts | 269° |
| 2026-04-18 05:08 | -15.67602 | -47.98759 | 14940 ft | 380 kts | 270° |
| 2026-04-18 05:09 | -15.67602 | -48.01510 | 15490 ft | 383 kts | 270° |
| 2026-04-18 05:09 | -15.67598 | -48.04287 | 16028 ft | 386 kts | 270° |
| 2026-04-18 05:09 | -15.67590 | -48.07091 | 16558 ft | 389 kts | 270° |
| 2026-04-18 05:09 | -15.67581 | -48.09911 | 17088 ft | 392 kts | 270° |
| 2026-04-18 05:10 | -15.67572 | -48.12760 | 17610 ft | 395 kts | 270° |
| 2026-04-18 05:10 | -15.67563 | -48.15584 | 18110 ft | 398 kts | 270° |
| 2026-04-18 05:10 | -15.67553 | -48.18477 | 18557 ft | 401 kts | 270° |
| 2026-04-18 05:10 | -15.67662 | -48.21382 | 18992 ft | 404 kts | 265° |
| 2026-04-18 05:11 | -15.67919 | -48.24287 | 19429 ft | 406 kts | 264° |
| 2026-04-18 05:11 | -15.68233 | -48.27210 | 19861 ft | 408 kts | 263° |
| 2026-04-18 05:11 | -15.68560 | -48.30140 | 20291 ft | 410 kts | 263° |
| 2026-04-18 05:11 | -15.68884 | -48.33089 | 20717 ft | 413 kts | 263° |
| 2026-04-18 05:12 | -15.69199 | -48.36057 | 21129 ft | 415 kts | 264° |
| 2026-04-18 05:12 | -15.69505 | -48.39039 | 21540 ft | 417 kts | 264° |
| 2026-04-18 05:12 | -15.69804 | -48.42042 | 21928 ft | 419 kts | 264° |
| 2026-04-18 05:12 | -15.70100 | -48.45058 | 22317 ft | 422 kts | 264° |
| 2026-04-18 05:13 | -15.70396 | -48.48099 | 22702 ft | 424 kts | 264° |
| 2026-04-18 05:13 | -15.70690 | -48.51146 | 23079 ft | 426 kts | 264° |
| 2026-04-18 05:13 | -15.70985 | -48.54214 | 23439 ft | 428 kts | 264° |
| 2026-04-18 05:13 | -15.71280 | -48.57294 | 23744 ft | 430 kts | 264° |
| 2026-04-18 05:14 | -15.71577 | -48.60390 | 24048 ft | 431 kts | 264° |
| 2026-04-18 05:14 | -15.71870 | -48.63447 | 24361 ft | 432 kts | 264° |
| 2026-04-18 05:14 | -15.72167 | -48.66553 | 24661 ft | 433 kts | 264° |
| 2026-04-18 05:14 | -15.72465 | -48.69669 | 24951 ft | 435 kts | 264° |
| 2026-04-18 05:15 | -15.72763 | -48.72801 | 25232 ft | 436 kts | 264° |
| 2026-04-18 05:15 | -15.73062 | -48.75938 | 25522 ft | 438 kts | 264° |
| 2026-04-18 05:15 | -15.73264 | -48.78059 | 25716 ft | 439 kts | 264° |
| 2026-04-18 05:15 | -15.73564 | -48.81217 | 25994 ft | 440 kts | 264° |
| 2026-04-18 05:16 | -15.73861 | -48.84343 | 26259 ft | 441 kts | 264° |
| 2026-04-18 05:16 | -15.74162 | -48.87520 | 26528 ft | 443 kts | 264° |
| 2026-04-18 05:16 | -15.74464 | -48.90709 | 26793 ft | 444 kts | 264° |
| 2026-04-18 05:16 | -15.74766 | -48.93912 | 27053 ft | 445 kts | 264° |
| 2026-04-18 05:17 | -15.75068 | -48.97117 | 27301 ft | 447 kts | 264° |
| 2026-04-18 05:17 | -15.75371 | -49.00333 | 27551 ft | 448 kts | 264° |
| 2026-04-18 05:17 | -15.75674 | -49.03556 | 27799 ft | 450 kts | 264° |
| 2026-04-18 05:17 | -15.75977 | -49.06792 | 28038 ft | 451 kts | 264° |
| 2026-04-18 05:18 | -15.76279 | -49.10012 | 28262 ft | 452 kts | 264° |
| 2026-04-18 05:18 | -15.76583 | -49.13259 | 28491 ft | 454 kts | 264° |
| 2026-04-18 05:18 | -15.76888 | -49.16529 | 28672 ft | 456 kts | 264° |
| 2026-04-18 05:18 | -15.77195 | -49.19820 | 28855 ft | 458 kts | 264° |
| 2026-04-18 05:19 | -15.77501 | -49.23108 | 29160 ft | 457 kts | 264° |
| 2026-04-18 05:19 | -15.77806 | -49.26385 | 29545 ft | 454 kts | 264° |
| 2026-04-18 05:19 | -15.78108 | -49.29646 | 29941 ft | 452 kts | 264° |
| 2026-04-18 05:19 | -15.78408 | -49.32882 | 30246 ft | 451 kts | 264° |
| 2026-04-18 05:20 | -15.78708 | -49.36122 | 30530 ft | 449 kts | 264° |
| 2026-04-18 05:20 | -15.79005 | -49.39347 | 30862 ft | 447 kts | 264° |
| 2026-04-18 05:20 | -15.79301 | -49.42556 | 31221 ft | 445 kts | 264° |
| 2026-04-18 05:20 | -15.79594 | -49.45742 | 31576 ft | 442 kts | 264° |
| 2026-04-18 05:21 | -15.79887 | -49.48924 | 31914 ft | 441 kts | 264° |
| 2026-04-18 05:21 | -15.80176 | -49.52080 | 32251 ft | 439 kts | 263° |
| 2026-04-18 05:21 | -15.80464 | -49.55229 | 32589 ft | 437 kts | 263° |
| 2026-04-18 05:21 | -15.80751 | -49.58364 | 32954 ft | 435 kts | 263° |
| 2026-04-18 05:22 | -15.81033 | -49.61450 | 33328 ft | 432 kts | 263° |
| 2026-04-18 05:22 | -15.81315 | -49.64548 | 33701 ft | 430 kts | 263° |
| 2026-04-18 05:22 | -15.81595 | -49.67630 | 34046 ft | 428 kts | 263° |
| 2026-04-18 05:22 | -15.81874 | -49.70700 | 34342 ft | 427 kts | 263° |
| 2026-04-18 05:23 | -15.82152 | -49.73763 | 34612 ft | 426 kts | 263° |
| 2026-04-18 05:23 | -15.82430 | -49.76828 | 34868 ft | 425 kts | 263° |
| 2026-04-18 05:23 | -15.82705 | -49.79875 | 35154 ft | 424 kts | 263° |
| 2026-04-18 05:23 | -15.82980 | -49.82916 | 35452 ft | 422 kts | 263° |
| 2026-04-18 05:24 | -15.83253 | -49.85946 | 35731 ft | 421 kts | 263° |
| 2026-04-18 05:24 | -15.83525 | -49.88968 | 35913 ft | 422 kts | 263° |
| 2026-04-18 05:24 | -15.84073 | -49.95063 | 35901 ft | 423 kts | 263° |
| 2026-04-18 05:25 | -15.84614 | -50.01111 | 35900 ft | 419 kts | 263° |
| 2026-04-18 05:25 | -15.85150 | -50.07121 | 35903 ft | 417 kts | 263° |
| 2026-04-18 05:26 | -15.85682 | -50.13102 | 35903 ft | 415 kts | 263° |
| 2026-04-18 05:26 | -15.86212 | -50.19074 | 35897 ft | 415 kts | 263° |
| 2026-04-18 05:27 | -15.86737 | -50.25014 | 35898 ft | 416 kts | 263° |
| 2026-04-18 05:27 | -15.87265 | -50.31009 | 35899 ft | 417 kts | 263° |
| 2026-04-18 05:28 | -15.87793 | -50.37019 | 35889 ft | 419 kts | 263° |
| 2026-04-18 05:28 | -15.88323 | -50.43062 | 35890 ft | 420 kts | 263° |
| 2026-04-18 05:29 | -15.88852 | -50.49125 | 35883 ft | 422 kts | 264° |
| 2026-04-18 05:29 | -15.89382 | -50.55216 | 35884 ft | 423 kts | 264° |
| 2026-04-18 05:30 | -15.89910 | -50.61309 | 35878 ft | 424 kts | 264° |
| 2026-04-18 05:30 | -15.90437 | -50.67414 | 35876 ft | 424 kts | 264° |
| 2026-04-18 05:31 | -15.90960 | -50.73479 | 35875 ft | 424 kts | 264° |
| 2026-04-18 05:31 | -15.91484 | -50.79583 | 35877 ft | 424 kts | 264° |
| 2026-04-18 05:32 | -15.92007 | -50.85694 | 35875 ft | 424 kts | 264° |
| 2026-04-18 05:32 | -15.92527 | -50.91790 | 35871 ft | 423 kts | 264° |
| 2026-04-18 05:33 | -15.93044 | -50.97878 | 35880 ft | 423 kts | 264° |
| 2026-04-18 05:33 | -15.93560 | -51.03969 | 35874 ft | 423 kts | 264° |
| 2026-04-18 05:34 | -15.94070 | -51.10015 | 35878 ft | 422 kts | 264° |
| 2026-04-18 05:34 | -15.94582 | -51.16100 | 35876 ft | 423 kts | 264° |
| 2026-04-18 05:35 | -15.95093 | -51.22192 | 35874 ft | 423 kts | 264° |
| 2026-04-18 05:35 | -15.95602 | -51.28284 | 35878 ft | 423 kts | 264° |
| 2026-04-18 05:36 | -15.96110 | -51.34385 | 35888 ft | 424 kts | 264° |
| 2026-04-18 05:36 | -15.96614 | -51.40455 | 35878 ft | 425 kts | 264° |
| 2026-04-18 05:37 | -15.97117 | -51.46576 | 35878 ft | 425 kts | 264° |
| 2026-04-18 05:37 | -15.97624 | -51.52743 | 35881 ft | 426 kts | 264° |
| 2026-04-18 05:38 | -15.98126 | -51.58845 | 35870 ft | 426 kts | 264° |
| 2026-04-18 05:38 | -15.98627 | -51.64989 | 35872 ft | 427 kts | 264° |
| 2026-04-18 05:39 | -15.99124 | -51.71146 | 35873 ft | 427 kts | 264° |
| 2026-04-18 05:39 | -15.99623 | -51.77292 | 35880 ft | 427 kts | 264° |
| 2026-04-18 05:40 | -16.00119 | -51.83404 | 35873 ft | 427 kts | 264° |
| 2026-04-18 05:40 | -16.00621 | -51.89553 | 35871 ft | 427 kts | 264° |
| 2026-04-18 05:41 | -16.01120 | -51.95702 | 35877 ft | 426 kts | 264° |
| 2026-04-18 05:41 | -16.01607 | -52.01852 | 35875 ft | 426 kts | 264° |
| 2026-04-18 05:42 | -16.02102 | -52.07995 | 35886 ft | 426 kts | 264° |
| 2026-04-18 05:42 | -16.02592 | -52.14134 | 35886 ft | 426 kts | 264° |
| 2026-04-18 05:43 | -16.03078 | -52.20265 | 35895 ft | 425 kts | 264° |
| 2026-04-18 05:43 | -16.03559 | -52.26359 | 35896 ft | 425 kts | 264° |
| 2026-04-18 05:44 | -16.04040 | -52.32477 | 35904 ft | 425 kts | 264° |
| 2026-04-18 05:44 | -16.04519 | -52.38594 | 35904 ft | 424 kts | 264° |
| 2026-04-18 05:45 | -16.04996 | -52.44713 | 35903 ft | 424 kts | 264° |
| 2026-04-18 05:45 | -16.05472 | -52.50833 | 35882 ft | 424 kts | 264° |
| 2026-04-18 05:46 | -16.05943 | -52.56898 | 35883 ft | 423 kts | 265° |
| 2026-04-18 05:46 | -16.06416 | -52.62999 | 35880 ft | 423 kts | 265° |
| 2026-04-18 05:47 | -16.06886 | -52.69105 | 35884 ft | 423 kts | 265° |
| 2026-04-18 05:47 | -16.07354 | -52.75205 | 35882 ft | 423 kts | 265° |
| 2026-04-18 05:48 | -16.07820 | -52.81314 | 35884 ft | 423 kts | 265° |
| 2026-04-18 05:48 | -16.08282 | -52.87378 | 35888 ft | 423 kts | 265° |
| 2026-04-18 05:49 | -16.08744 | -52.93476 | 35888 ft | 423 kts | 265° |
| 2026-04-18 05:49 | -16.09205 | -52.99580 | 35894 ft | 423 kts | 265° |
| 2026-04-18 05:50 | -16.09665 | -53.05693 | 35893 ft | 423 kts | 265° |
| 2026-04-18 05:50 | -16.10122 | -53.11790 | 35895 ft | 423 kts | 265° |
| 2026-04-18 05:51 | -16.10578 | -53.17897 | 35894 ft | 423 kts | 265° |
| 2026-04-18 05:51 | -16.11028 | -53.23952 | 35901 ft | 423 kts | 265° |
| 2026-04-18 05:52 | -16.11480 | -53.30045 | 35901 ft | 422 kts | 264° |
| 2026-04-18 05:52 | -16.11930 | -53.36146 | 35901 ft | 422 kts | 264° |
| 2026-04-18 05:53 | -16.12378 | -53.42234 | 35883 ft | 422 kts | 265° |
| 2026-04-18 05:53 | -16.12824 | -53.48323 | 35896 ft | 422 kts | 265° |
| 2026-04-18 05:54 | -16.13266 | -53.54381 | 35907 ft | 423 kts | 265° |
| 2026-04-18 05:54 | -16.13710 | -53.60497 | 35903 ft | 424 kts | 265° |
| 2026-04-18 05:55 | -16.14154 | -53.66626 | 35905 ft | 425 kts | 265° |
| 2026-04-18 05:55 | -16.14597 | -53.72770 | 35904 ft | 426 kts | 265° |
| 2026-04-18 05:56 | -16.15039 | -53.78929 | 35903 ft | 427 kts | 265° |
| 2026-04-18 05:56 | -16.15479 | -53.85091 | 35898 ft | 427 kts | 265° |
| 2026-04-18 05:57 | -16.16135 | -53.94309 | 35895 ft | 427 kts | 265° |
| 2026-04-18 05:58 | -16.16571 | -54.00464 | 35899 ft | 426 kts | 265° |
| 2026-04-18 05:58 | -16.17002 | -54.06579 | 35895 ft | 425 kts | 265° |
| 2026-04-18 05:59 | -16.17432 | -54.12711 | 35894 ft | 425 kts | 265° |
| 2026-04-18 05:59 | -16.17649 | -54.15799 | 35412 ft | 431 kts | 265° |
| 2026-04-18 05:59 | -16.17866 | -54.18905 | 34822 ft | 430 kts | 265° |
| 2026-04-18 05:59 | -16.18082 | -54.22013 | 34177 ft | 431 kts | 265° |
| 2026-04-18 06:00 | -16.18299 | -54.25133 | 33416 ft | 433 kts | 265° |
| 2026-04-18 06:00 | -16.18515 | -54.28245 | 32917 ft | 429 kts | 265° |
| 2026-04-18 06:00 | -16.18728 | -54.31329 | 32407 ft | 425 kts | 265° |
| 2026-04-18 06:00 | -16.18939 | -54.34384 | 31931 ft | 421 kts | 265° |
| 2026-04-18 06:01 | -16.19148 | -54.37415 | 31420 ft | 415 kts | 265° |
| 2026-04-18 06:01 | -16.19284 | -54.39386 | 30955 ft | 411 kts | 265° |
| 2026-04-18 06:01 | -16.19556 | -54.43352 | 29779 ft | 411 kts | 265° |
| 2026-04-18 06:01 | -16.19691 | -54.45308 | 29149 ft | 409 kts | 265° |
| 2026-04-18 06:02 | -16.19958 | -54.49221 | 28307 ft | 397 kts | 265° |
| 2026-04-18 06:02 | -16.20087 | -54.51106 | 27965 ft | 392 kts | 265° |
| 2026-04-18 06:02 | -16.20278 | -54.53922 | 27503 ft | 389 kts | 265° |
| 2026-04-18 06:02 | -16.20469 | -54.56724 | 27039 ft | 386 kts | 265° |
| 2026-04-18 06:03 | -16.20658 | -54.59509 | 26589 ft | 384 kts | 265° |
| 2026-04-18 06:03 | -16.20846 | -54.62274 | 26150 ft | 382 kts | 265° |
| 2026-04-18 06:03 | -16.21030 | -54.64989 | 25715 ft | 380 kts | 265° |
| 2026-04-18 06:03 | -16.21215 | -54.67731 | 25280 ft | 378 kts | 265° |
| 2026-04-18 06:04 | -16.21399 | -54.70458 | 24824 ft | 378 kts | 265° |
| 2026-04-18 06:04 | -16.21582 | -54.73178 | 24388 ft | 376 kts | 265° |
| 2026-04-18 06:04 | -16.21764 | -54.75897 | 23943 ft | 376 kts | 265° |
| 2026-04-18 06:04 | -16.21880 | -54.78614 | 23365 ft | 379 kts | 272° |
| 2026-04-18 06:05 | -16.21476 | -54.81358 | 22582 ft | 387 kts | 283° |
| 2026-04-18 06:05 | -16.20652 | -54.84027 | 22067 ft | 387 kts | 288° |
| 2026-04-18 06:05 | -16.19771 | -54.86662 | 21652 ft | 383 kts | 288° |
| 2026-04-18 06:05 | -16.18894 | -54.89265 | 21225 ft | 379 kts | 288° |
| 2026-04-18 06:06 | -16.18027 | -54.91849 | 20775 ft | 377 kts | 288° |
| 2026-04-18 06:06 | -16.17171 | -54.94419 | 20328 ft | 375 kts | 288° |
| 2026-04-18 06:06 | -16.16322 | -54.96981 | 19894 ft | 373 kts | 288° |
| 2026-04-18 06:06 | -16.15492 | -54.99493 | 19459 ft | 368 kts | 288° |
| 2026-04-18 06:07 | -16.14666 | -55.02001 | 18871 ft | 365 kts | 288° |
| 2026-04-18 06:07 | -16.13844 | -55.04497 | 18208 ft | 365 kts | 288° |
| 2026-04-18 06:07 | -16.13025 | -55.06988 | 17522 ft | 363 kts | 288° |
| 2026-04-18 06:07 | -16.12214 | -55.09451 | 17012 ft | 356 kts | 288° |
| 2026-04-18 06:08 | -16.11421 | -55.11860 | 16558 ft | 348 kts | 288° |
| 2026-04-18 06:08 | -16.10641 | -55.14229 | 16172 ft | 345 kts | 288° |
| 2026-04-18 06:08 | -16.09864 | -55.16590 | 15772 ft | 344 kts | 288° |
| 2026-04-18 06:08 | -16.09090 | -55.18938 | 15375 ft | 342 kts | 288° |
| 2026-04-18 06:09 | -16.08320 | -55.21276 | 14982 ft | 341 kts | 288° |
| 2026-04-18 06:09 | -16.07553 | -55.23602 | 14574 ft | 340 kts | 288° |
| 2026-04-18 06:09 | -16.06786 | -55.25927 | 14185 ft | 339 kts | 289° |
| 2026-04-18 06:09 | -16.06021 | -55.28245 | 13778 ft | 339 kts | 289° |
| 2026-04-18 06:10 | -16.05257 | -55.30559 | 13344 ft | 338 kts | 289° |
| 2026-04-18 06:10 | -16.04506 | -55.32832 | 12946 ft | 336 kts | 289° |
| 2026-04-18 06:10 | -16.03750 | -55.35121 | 12542 ft | 334 kts | 289° |
| 2026-04-18 06:10 | -16.02997 | -55.37398 | 12152 ft | 332 kts | 289° |
| 2026-04-18 06:11 | -16.02249 | -55.39659 | 11770 ft | 330 kts | 289° |
| 2026-04-18 06:11 | -16.01503 | -55.41913 | 11386 ft | 328 kts | 289° |
| 2026-04-18 06:11 | -16.00764 | -55.44145 | 11010 ft | 326 kts | 289° |
| 2026-04-18 06:11 | -16.00028 | -55.46369 | 10630 ft | 325 kts | 289° |
| 2026-04-18 06:12 | -15.99297 | -55.48576 | 10398 ft | 318 kts | 289° |
| 2026-04-18 06:12 | -15.98587 | -55.50718 | 10247 ft | 309 kts | 289° |
| 2026-04-18 06:12 | -15.97899 | -55.52795 | 10109 ft | 299 kts | 289° |
| 2026-04-18 06:12 | -15.97236 | -55.54794 | 9965 ft | 285 kts | 289° |
| 2026-04-18 06:13 | -15.96604 | -55.56701 | 9793 ft | 275 kts | 289° |
| 2026-04-18 06:13 | -15.95986 | -55.58562 | 9491 ft | 268 kts | 289° |
| 2026-04-18 06:13 | -15.95385 | -55.60374 | 9217 ft | 263 kts | 289° |
| 2026-04-18 06:13 | -15.94798 | -55.62143 | 8962 ft | 262 kts | 289° |
| 2026-04-18 06:14 | -15.94199 | -55.63944 | 8705 ft | 265 kts | 289° |
| 2026-04-18 06:14 | -15.93588 | -55.65785 | 8447 ft | 275 kts | 289° |
| 2026-04-18 06:14 | -15.92958 | -55.67681 | 8152 ft | 278 kts | 289° |
| 2026-04-18 06:14 | -15.92330 | -55.69569 | 7860 ft | 275 kts | 289° |
| 2026-04-18 06:15 | -15.91706 | -55.71445 | 7579 ft | 275 kts | 289° |
| 2026-04-18 06:15 | -15.91082 | -55.73323 | 7293 ft | 274 kts | 289° |
| 2026-04-18 06:15 | -15.90459 | -55.75194 | 7010 ft | 273 kts | 289° |
| 2026-04-18 06:15 | -15.89839 | -55.77057 | 6731 ft | 273 kts | 289° |
| 2026-04-18 06:16 | -15.89228 | -55.78894 | 6454 ft | 272 kts | 290° |
| 2026-04-18 06:16 | -15.88610 | -55.80749 | 6158 ft | 272 kts | 290° |
| 2026-04-18 06:16 | -15.87991 | -55.82607 | 5861 ft | 272 kts | 290° |
| 2026-04-18 06:16 | -15.87374 | -55.84459 | 5570 ft | 271 kts | 290° |
| 2026-04-18 06:17 | -15.86756 | -55.86313 | 5285 ft | 270 kts | 290° |
| 2026-04-18 06:17 | -15.86141 | -55.88157 | 5003 ft | 269 kts | 290° |
| 2026-04-18 06:17 | -15.85528 | -55.89992 | 4721 ft | 268 kts | 290° |
| 2026-04-18 06:17 | -15.84916 | -55.91820 | 4463 ft | 267 kts | 290° |
| 2026-04-18 06:18 | -15.84326 | -55.93589 | 4375 ft | 258 kts | 290° |
| 2026-04-18 06:18 | -15.83756 | -55.95304 | 4338 ft | 244 kts | 290° |
| 2026-04-18 06:18 | -15.83218 | -55.96920 | 4244 ft | 229 kts | 290° |
| 2026-04-18 06:18 | -15.82713 | -55.98433 | 4151 ft | 214 kts | 290° |
| 2026-04-18 06:19 | -15.82238 | -55.99846 | 4050 ft | 201 kts | 290° |
| 2026-04-18 06:19 | -15.81793 | -56.01175 | 3944 ft | 189 kts | 291° |
| 2026-04-18 06:19 | -15.81367 | -56.02440 | 3756 ft | 182 kts | 293° |
| 2026-04-18 06:19 | -15.80626 | -56.03428 | 3606 ft | 173 kts | 334° |
| 2026-04-18 06:20 | -15.79534 | -56.03992 | 3428 ft | 180 kts | 332° |
| 2026-04-18 06:20 | -15.78460 | -56.04613 | 3193 ft | 177 kts | 333° |
| 2026-04-18 06:20 | -15.77400 | -56.05194 | 3008 ft | 168 kts | 334° |
| 2026-04-18 06:20 | -15.76387 | -56.05739 | 2790 ft | 156 kts | 334° |
| 2026-04-18 06:21 | -15.75449 | -56.06242 | 2572 ft | 149 kts | 334° |
| 2026-04-18 06:21 | -15.74525 | -56.06735 | 2381 ft | 149 kts | 334° |
| 2026-04-18 06:21 | -15.73609 | -56.07225 | 2187 ft | 148 kts | 333° |
| 2026-04-18 06:21 | -15.72695 | -56.07713 | 2002 ft | 147 kts | 333° |
| 2026-04-18 06:22 | -15.71787 | -56.08199 | 1815 ft | 147 kts | 333° |
| 2026-04-18 06:22 | -15.70880 | -56.08684 | 1628 ft | 146 kts | 333° |
| 2026-04-18 06:22 | -15.69977 | -56.09167 | 1439 ft | 146 kts | 333° |
| 2026-04-18 06:22 | -15.69074 | -56.09650 | 1261 ft | 146 kts | 331° |
| 2026-04-18 06:23 | -15.68184 | -56.10141 | 1073 ft | 144 kts | 332° |
| 2026-04-18 06:23 | -15.67298 | -56.10618 | 891 ft | 143 kts | 334° |
| 2026-04-18 06:23 | -15.66409 | -56.11081 | 683 ft | 143 kts | 334° |
| 2026-04-18 06:23 | -15.65545 | -56.11538 | 597 ft | 130 kts | 333° |
| 2026-04-18 06:24 | -15.64922 | -56.11867 | 595 ft | 61 kts | 333° |
| 2026-04-18 06:24 | -15.64576 | -56.12050 | 594 ft | 48 kts | 333° |
| 2026-04-18 06:24 | -15.64443 | -56.12138 | 595 ft | 13 kts | 297° |
| 2026-04-18 06:24 | -15.64402 | -56.12162 | 595 ft | 9 kts | 56° |
| 2026-04-18 06:25 | -15.64440 | -56.12121 | 595 ft | 9 kts | 154° |
| 2026-04-18 06:25 | -15.64500 | -56.12090 | 595 ft | 11 kts | 153° |
| 2026-04-18 06:25 | -15.64581 | -56.12048 | 594 ft | 15 kts | 153° |
| 2026-04-18 06:25 | -15.64681 | -56.11995 | 595 ft | 17 kts | 153° |
| 2026-04-18 06:26 | -15.64796 | -56.11934 | 595 ft | 20 kts | 153° |
| 2026-04-18 06:26 | -15.64927 | -56.11864 | 595 ft | 22 kts | 153° |
| 2026-04-18 06:26 | -15.65032 | -56.11818 | 597 ft | 10 kts | 183° |
| 2026-04-18 06:26 | -15.65081 | -56.11864 | 596 ft | 10 kts | 248° |
| 2026-04-18 06:27 | -15.65057 | -56.11924 | 596 ft | 10 kts | 324° |
| 2026-04-18 06:27 | -15.64998 | -56.11957 | 596 ft | 10 kts | 333° |
| 2026-04-18 06:27 | -15.64939 | -56.11988 | 595 ft | 9 kts | 332° |
| 2026-04-18 06:27 | -15.64883 | -56.12018 | 595 ft | 9 kts | 333° |
| 2026-04-18 06:28 | -15.64854 | -56.12035 | 595 ft | 4 kts | 320° |
| 2026-04-18 06:28 | -15.64853 | -56.12061 | 595 ft | 4 kts | 255° |
| 2026-04-18 06:28 | -15.64857 | -56.12070 | 596 ft | 0 kts | 243° |
| 2026-04-18 06:28 | -15.64858 | -56.12073 | 596 ft | 0 kts | 245° |